createdAt,value
2023-09-27T00:01:15.097Z,100867.80
2023-09-27T00:03:43.934Z,100868.72
2023-09-27T00:06:12.801Z,100865.85
2023-09-27T00:08:41.855Z,100864.22
2023-09-27T00:11:10.767Z,100872.02
2023-09-27T00:13:40.604Z,100874.81
2023-09-27T00:16:09.541Z,100882.88
2023-09-27T00:18:38.378Z,100879.90
2023-09-27T00:21:07.246Z,100878.30
2023-09-27T00:23:36.736Z,100880.04
2023-09-27T00:26:05.727Z,100877.71
2023-09-27T00:28:34.723Z,100878.40
2023-09-27T00:31:04.963Z,100876.03
2023-09-27T00:33:33.814Z,100870.05
2023-09-27T00:36:03.105Z,100872.58
2023-09-27T00:38:33.240Z,100867.83
2023-09-27T00:41:01.601Z,100864.21
2023-09-27T00:43:31.935Z,100864.27
2023-09-27T00:46:21.017Z,100864.07
2023-09-27T00:48:50.292Z,100861.65
2023-09-27T00:51:19.525Z,100865.79
2023-09-27T00:53:49.970Z,100867.61
2023-09-27T00:56:20.010Z,100866.20
2023-09-27T00:58:49.536Z,100866.95
2023-09-27T01:01:19.329Z,100865.65
2023-09-27T01:03:49.291Z,100866.19
2023-09-27T01:06:19.203Z,100863.02
2023-09-27T01:08:48.576Z,100863.55
2023-09-27T01:11:17.859Z,100863.45
2023-09-27T01:13:46.956Z,100864.65
2023-09-27T01:16:16.352Z,100864.13
2023-09-27T01:18:45.245Z,100863.30
2023-09-27T01:21:19.449Z,100863.58
2023-09-27T01:23:50.953Z,100860.79
2023-09-27T01:26:21.712Z,100858.40
2023-09-27T01:28:51.780Z,100854.45
2023-09-27T01:31:20.495Z,100855.55
2023-09-27T01:33:49.838Z,100854.41
2023-09-27T01:36:19.017Z,100858.78
2023-09-27T01:38:48.010Z,100859.44
2023-09-27T01:41:17.439Z,100858.19
2023-09-27T01:43:46.359Z,100863.49
2023-09-27T01:46:15.428Z,100861.20
2023-09-27T01:48:44.146Z,100861.25
2023-09-27T01:51:14.183Z,100862.54
2023-09-27T01:53:43.086Z,100863.17
2023-09-27T01:56:11.758Z,100860.91
2023-09-27T01:58:40.860Z,100858.54
2023-09-27T02:01:08.912Z,100858.45
2023-09-27T02:03:37.935Z,100855.75
2023-09-27T02:06:07.126Z,100853.13
2023-09-27T02:08:35.892Z,100851.85
2023-09-27T02:11:04.443Z,100852.35
2023-09-27T02:13:33.904Z,100855.98
2023-09-27T02:16:03.085Z,100856.33
2023-09-27T02:18:33.314Z,100860.42
2023-09-27T02:21:03.577Z,100858.02
2023-09-27T02:23:32.897Z,100859.42
2023-09-27T02:26:03.010Z,100857.08
2023-09-27T02:28:31.909Z,100859.65
2023-09-27T02:31:01.078Z,100860.88
2023-09-27T02:33:30.314Z,100858.02
2023-09-27T02:35:59.424Z,100858.15
2023-09-27T02:38:28.422Z,100855.39
2023-09-27T02:40:57.418Z,100855.95
2023-09-27T02:43:26.422Z,100859.51
2023-09-27T02:45:56.429Z,100863.31
2023-09-27T02:48:26.881Z,100863.89
2023-09-27T02:50:56.425Z,100862.39
2023-09-27T02:53:25.869Z,100864.84
2023-09-27T02:55:55.266Z,100864.83
2023-09-27T02:58:24.640Z,100867.33
2023-09-27T03:00:53.370Z,100867.38
2023-09-27T03:03:21.899Z,100867.46
2023-09-27T03:05:50.318Z,100865.16
2023-09-27T03:08:19.069Z,100866.72
2023-09-27T03:10:46.193Z,100862.56
2023-09-27T03:13:13.212Z,100864.81
2023-09-27T03:15:41.638Z,100860.80
2023-09-27T03:18:10.229Z,100864.92
2023-09-27T03:20:38.955Z,100861.92
2023-09-27T03:23:08.517Z,100862.47
2023-09-27T03:25:37.568Z,100862.06
2023-09-27T03:28:06.721Z,100859.16
2023-09-27T03:30:35.564Z,100862.88
2023-09-27T03:33:06.476Z,100866.42
2023-09-27T03:35:36.853Z,100865.77
2023-09-27T03:38:06.173Z,100863.38
2023-09-27T03:40:35.195Z,100860.53
2023-09-27T03:43:04.415Z,100860.12
2023-09-27T03:45:35.031Z,100861.99
2023-09-27T03:48:06.564Z,100861.29
2023-09-27T03:50:35.412Z,100863.38
2023-09-27T03:53:05.252Z,100873.84
2023-09-27T03:55:34.330Z,100871.88
2023-09-27T03:58:03.902Z,100868.44
2023-09-27T04:00:32.739Z,100869.42
2023-09-27T04:03:01.749Z,100868.52
2023-09-27T04:05:33.264Z,100868.42
2023-09-27T04:08:03.470Z,100867.79
2023-09-27T04:10:32.421Z,100862.48
2023-09-27T04:13:01.290Z,100866.58
2023-09-27T04:15:30.798Z,100867.02
2023-09-27T04:18:00.192Z,100869.48
2023-09-27T04:20:29.814Z,100870.24
2023-09-27T04:22:59.259Z,100867.86
2023-09-27T04:25:28.406Z,100866.50
2023-09-27T04:27:58.236Z,100869.38
2023-09-27T04:30:27.706Z,100869.47
2023-09-27T04:32:56.557Z,100869.84
2023-09-27T04:35:25.490Z,100871.10
2023-09-27T04:37:54.543Z,100872.26
2023-09-27T04:40:23.869Z,100872.36
2023-09-27T04:42:52.783Z,100875.43
2023-09-27T04:45:22.040Z,100877.77
2023-09-27T04:47:51.234Z,100878.52
2023-09-27T04:50:19.542Z,100878.14
2023-09-27T04:52:48.652Z,100886.52
2023-09-27T04:55:17.956Z,100888.55
2023-09-27T04:57:45.721Z,100892.88
2023-09-27T05:00:19.343Z,100893.51
2023-09-27T05:02:55.268Z,100891.17
2023-09-27T05:05:23.258Z,100889.73
2023-09-27T05:07:51.001Z,100892.71
2023-09-27T05:10:19.258Z,100890.98
2023-09-27T05:12:47.643Z,100889.61
2023-09-27T05:15:14.729Z,100892.64
2023-09-27T05:17:41.779Z,100898.02
2023-09-27T05:20:11.153Z,100896.49
2023-09-27T05:22:39.565Z,100898.73
2023-09-27T05:25:08.748Z,100895.58
2023-09-27T05:27:35.895Z,100895.41
2023-09-27T05:30:08.023Z,100894.31
2023-09-27T05:32:35.507Z,100891.45
2023-09-27T05:35:05.297Z,100895.14
2023-09-27T05:37:32.546Z,100895.40
2023-09-27T05:39:59.561Z,100897.77
2023-09-27T05:42:26.767Z,100899.67
2023-09-27T05:44:53.856Z,100903.52
2023-09-27T05:47:21.205Z,100906.44
2023-09-27T05:49:48.236Z,100908.73
2023-09-27T05:52:17.495Z,100907.94
2023-09-27T05:54:45.550Z,100904.70
2023-09-27T05:57:12.983Z,100908.23
2023-09-27T05:59:44.909Z,100908.20
2023-09-27T06:02:17.414Z,100907.10
2023-09-27T06:04:46.485Z,100907.16
2023-09-27T06:07:15.280Z,100912.51
2023-09-27T06:09:44.919Z,100916.48
2023-09-27T06:12:12.553Z,100922.92
2023-09-27T06:14:39.788Z,100921.52
2023-09-27T06:17:06.892Z,100924.77
2023-09-27T06:19:34.672Z,100925.45
2023-09-27T06:22:05.439Z,100923.70
2023-09-27T06:24:33.866Z,100927.30
2023-09-27T06:27:02.019Z,100934.15
2023-09-27T06:29:28.987Z,100935.94
2023-09-27T06:31:57.288Z,100939.17
2023-09-27T06:34:24.611Z,100938.48
2023-09-27T06:36:56.794Z,100941.58
2023-09-27T06:39:26.317Z,100940.14
2023-09-27T06:41:56.523Z,100943.59
2023-09-27T06:44:26.531Z,100941.39
2023-09-27T06:46:55.149Z,100945.13
2023-09-27T06:49:23.185Z,100944.69
2023-09-27T06:51:51.996Z,100950.41
2023-09-27T06:54:19.156Z,100954.55
2023-09-27T06:56:47.405Z,100956.30
2023-09-27T06:59:16.433Z,100955.08
2023-09-27T07:01:43.521Z,100960.27
2023-09-27T07:04:11.696Z,100960.05
2023-09-27T07:06:39.248Z,100959.84
2023-09-27T07:09:13.343Z,100963.19
2023-09-27T07:11:42.618Z,100965.89
2023-09-27T07:14:09.721Z,100972.27
2023-09-27T07:16:46.423Z,100975.02
2023-09-27T07:19:23.836Z,100975.94
2023-09-27T07:21:51.851Z,100976.23
2023-09-27T07:24:19.318Z,100979.20
2023-09-27T07:26:48.450Z,100979.23
2023-09-27T07:29:16.699Z,100981.30
2023-09-27T07:31:43.698Z,100982.91
2023-09-27T07:34:10.986Z,100977.33
2023-09-27T07:36:38.184Z,100977.32
2023-09-27T07:39:06.128Z,100978.61
2023-09-27T07:41:35.805Z,100981.16
2023-09-27T07:44:07.377Z,100984.48
2023-09-27T07:46:35.946Z,100983.52
2023-09-27T07:49:04.288Z,100981.75
2023-09-27T07:51:31.300Z,100981.90
2023-09-27T07:53:58.312Z,100982.22
2023-09-27T07:56:26.882Z,100984.64
2023-09-27T07:58:55.329Z,100989.24
2023-09-27T08:01:24.295Z,100987.53
2023-09-27T08:03:52.207Z,100987.84
2023-09-27T08:06:20.282Z,100986.77
2023-09-27T08:08:47.947Z,100984.67
2023-09-27T08:11:16.076Z,100987.46
2023-09-27T08:13:44.945Z,100989.73
2023-09-27T08:16:13.149Z,100987.94
2023-09-27T08:18:43.439Z,100991.41
2023-09-27T08:21:12.154Z,100991.62
2023-09-27T08:23:41.643Z,100991.77
2023-09-27T08:26:12.904Z,100995.96
2023-09-27T08:28:40.456Z,100997.48
2023-09-27T08:31:07.619Z,100996.52
2023-09-27T08:33:36.454Z,100994.52
2023-09-27T08:36:05.371Z,100997.35
2023-09-27T08:38:34.276Z,100995.06
2023-09-27T08:41:04.212Z,100998.85
2023-09-27T08:43:34.956Z,101002.42
2023-09-27T08:46:05.578Z,101001.02
2023-09-27T08:48:36.145Z,100996.24
2023-09-27T08:51:05.542Z,100999.37
2023-09-27T08:53:35.531Z,100997.63
2023-09-27T08:56:06.818Z,100995.84
2023-09-27T08:58:34.682Z,100997.97
2023-09-27T09:01:04.195Z,100994.70
2023-09-27T09:03:34.009Z,100998.02
2023-09-27T09:06:11.186Z,100992.54
2023-09-27T09:08:54.661Z,100992.27
2023-09-27T09:11:23.637Z,100997.75
2023-09-27T09:14:04.950Z,101000.85
2023-09-27T09:16:40.729Z,100998.16
2023-09-27T09:19:42.899Z,100995.35
2023-09-27T09:22:13.395Z,100991.81
2023-09-27T09:24:42.860Z,100988.77
2023-09-27T09:27:18.243Z,100984.77
2023-09-27T09:29:53.003Z,100981.46
2023-09-27T09:32:23.151Z,100975.94
2023-09-27T09:34:53.529Z,100973.52
2023-09-27T09:37:23.802Z,100971.49
2023-09-27T09:39:54.442Z,100977.42
2023-09-27T09:42:33.539Z,100981.48
2023-09-27T09:45:07.389Z,100982.38
2023-09-27T09:47:38.560Z,100981.06
2023-09-27T09:50:20.321Z,100981.63
2023-09-27T09:52:58.310Z,100978.69
2023-09-27T09:55:48.719Z,100973.75
2023-09-27T09:58:47.495Z,100972.79
2023-09-27T10:01:26.872Z,100970.13
2023-09-27T10:03:55.781Z,100972.31
2023-09-27T10:06:36.517Z,100971.80
2023-09-27T10:09:14.556Z,100967.20
2023-09-27T10:11:45.384Z,100964.98
2023-09-27T10:14:16.922Z,100961.55
2023-09-27T10:16:45.523Z,100959.86
2023-09-27T10:19:26.646Z,100956.67
2023-09-27T10:22:07.956Z,100955.83
2023-09-27T10:24:41.662Z,100956.59
2023-09-27T10:27:08.815Z,100956.92
2023-09-27T10:29:58.752Z,100956.30
2023-09-27T10:32:28.591Z,100949.74
2023-09-27T10:35:16.634Z,100944.98
2023-09-27T10:37:58.787Z,100945.45
2023-09-27T10:40:26.272Z,100942.28
2023-09-27T10:42:55.793Z,100938.60
2023-09-27T10:45:23.496Z,100940.05
2023-09-27T10:47:52.845Z,100937.91
2023-09-27T10:50:31.538Z,100932.98
2023-09-27T10:52:59.728Z,100932.33
2023-09-27T10:55:39.209Z,100931.46
2023-09-27T10:58:09.989Z,100928.29
2023-09-27T11:00:55.730Z,100924.50
2023-09-27T11:03:30.390Z,100917.83
2023-09-27T11:06:11.795Z,100916.80
2023-09-27T11:08:41.752Z,100914.11
2023-09-27T11:11:11.848Z,100909.27
2023-09-27T11:13:49.192Z,100903.31
2023-09-27T11:16:21.613Z,100900.03
2023-09-27T11:18:50.603Z,100900.80
2023-09-27T11:21:24.497Z,100895.30
2023-09-27T11:24:05.489Z,100890.34
2023-09-27T11:26:33.782Z,100887.59
2023-09-27T11:29:27.328Z,100883.50
2023-09-27T11:31:58.303Z,100886.39
2023-09-27T11:34:58.498Z,100884.55
2023-09-27T11:37:29.002Z,100876.19
2023-09-27T11:39:59.605Z,100873.69
2023-09-27T11:42:28.466Z,100869.67
2023-09-27T11:45:09.914Z,100861.08
2023-09-27T11:47:51.909Z,100858.73
2023-09-27T11:50:43.565Z,100856.73
2023-09-27T11:53:14.178Z,100858.66
2023-09-27T11:55:59.726Z,100852.64
2023-09-27T11:58:37.606Z,100847.88
2023-09-27T12:01:17.436Z,100845.14
2023-09-27T12:04:08.300Z,100844.80
2023-09-27T12:06:38.172Z,100847.18
2023-09-27T12:09:07.038Z,100845.71
2023-09-27T12:11:36.746Z,100841.77
2023-09-27T12:14:08.418Z,100841.04
2023-09-27T12:16:38.462Z,100834.98
2023-09-27T12:19:08.829Z,100831.84
2023-09-27T12:21:38.226Z,100831.45
2023-09-27T12:24:08.852Z,100826.56
2023-09-27T12:26:38.562Z,100824.90
2023-09-27T12:29:08.320Z,100820.58
2023-09-27T12:31:37.535Z,100818.02
2023-09-27T12:34:06.907Z,100813.14
2023-09-27T12:36:51.273Z,100814.15
2023-09-27T12:39:21.512Z,100810.47
2023-09-27T12:41:55.359Z,100803.89
2023-09-27T12:44:23.739Z,100801.92
2023-09-27T12:46:58.162Z,100800.73
2023-09-27T12:49:28.108Z,100799.50
2023-09-27T12:51:56.995Z,100799.13
2023-09-27T12:54:30.477Z,100792.30
2023-09-27T12:57:01.624Z,100790.23
2023-09-27T12:59:41.095Z,100790.16
2023-09-27T13:02:31.725Z,100784.83
2023-09-27T13:05:02.411Z,100789.36
2023-09-27T13:07:51.403Z,100788.30
2023-09-27T13:10:21.361Z,100781.39
2023-09-27T13:12:53.192Z,100779.70
2023-09-27T13:15:20.598Z,100773.63
2023-09-27T13:17:47.951Z,100768.89
2023-09-27T13:20:16.102Z,100770.05
2023-09-27T13:22:46.112Z,100765.62
2023-09-27T13:25:16.029Z,100763.53
2023-09-27T13:27:45.714Z,100758.70
2023-09-27T13:30:29.673Z,100756.60
2023-09-27T13:33:06.859Z,100749.64
2023-09-27T13:35:37.328Z,100746.15
2023-09-27T13:38:11.110Z,100746.79
2023-09-27T13:40:39.732Z,100748.31
2023-09-27T13:43:08.922Z,100745.70
2023-09-27T13:45:38.978Z,100742.81
2023-09-27T13:48:08.598Z,100737.16
2023-09-27T13:50:41.290Z,100737.05
2023-09-27T13:53:11.630Z,100734.27
2023-09-27T13:55:59.058Z,100733.58
2023-09-27T13:58:28.170Z,100732.05
2023-09-27T14:01:23.694Z,100728.99
2023-09-27T14:04:03.432Z,100725.52
2023-09-27T14:06:57.987Z,100729.55
2023-09-27T14:09:28.895Z,100727.21
2023-09-27T14:19:53.115Z,100706.80
2023-09-27T14:22:49.257Z,100706.02
2023-09-27T14:25:37.068Z,100705.02
2023-09-27T14:28:14.429Z,100700.58
2023-09-27T14:31:39.086Z,100699.80
2023-09-27T14:34:56.711Z,100698.61
2023-09-27T14:38:14.266Z,100693.02
2023-09-27T14:41:30.151Z,100697.26
2023-09-27T14:44:28.011Z,100694.73
2023-09-27T14:47:55.876Z,100691.23
2023-09-27T14:50:26.123Z,100691.34
2023-09-27T14:52:56.704Z,100688.05
2023-09-27T14:55:30.690Z,100684.43
2023-09-27T14:58:22.019Z,100680.08
2023-09-27T15:00:52.875Z,100682.06
2023-09-27T15:03:34.083Z,100679.66
2023-09-27T15:06:07.861Z,100672.08
2023-09-27T15:08:38.789Z,100671.09
2023-09-27T15:11:22.542Z,100670.73
2023-09-27T15:14:10.165Z,100667.03
2023-09-27T15:16:51.653Z,100668.43
2023-09-27T15:19:23.135Z,100667.42
2023-09-27T15:22:22.697Z,100669.00
2023-09-27T15:24:53.631Z,100669.54
2023-09-27T15:27:43.323Z,100671.21
2023-09-27T15:30:22.733Z,100669.41
2023-09-27T15:32:55.194Z,100664.96
2023-09-27T15:35:55.313Z,100660.48
2023-09-27T15:38:50.878Z,100659.27
2023-09-27T15:41:44.627Z,100660.38
2023-09-27T15:44:14.112Z,100663.39
2023-09-27T15:46:49.768Z,100661.14
2023-09-27T15:49:18.977Z,100661.52
2023-09-27T15:52:19.141Z,100661.90
2023-09-27T15:55:09.634Z,100659.58
2023-09-27T15:57:49.593Z,100659.55
2023-09-27T16:00:19.704Z,100661.99
2023-09-27T16:03:01.217Z,100662.30
2023-09-27T16:05:52.499Z,100661.23
2023-09-27T16:08:23.923Z,100657.14
2023-09-27T16:11:27.089Z,100656.56
2023-09-27T16:14:09.990Z,100658.27
2023-09-27T16:16:45.496Z,100660.01
2023-09-27T16:24:48.045Z,100659.07
2023-09-27T16:27:35.034Z,100653.45
2023-09-27T16:30:21.123Z,100652.71
2023-09-27T16:32:50.317Z,100651.09
2023-09-27T16:35:18.453Z,100652.48
2023-09-27T16:37:46.206Z,100654.44
2023-09-27T16:40:14.865Z,100655.96
2023-09-27T16:42:42.509Z,100649.16
2023-09-27T16:45:11.062Z,100650.33
2023-09-27T16:47:40.151Z,100647.45
2023-09-27T16:50:09.956Z,100650.75
2023-09-27T16:52:37.906Z,100655.86
2023-09-27T16:55:09.409Z,100655.92
2023-09-27T16:57:39.362Z,100652.77
2023-09-27T17:00:11.347Z,100651.48
2023-09-27T17:02:44.005Z,100655.52
2023-09-27T17:05:11.683Z,100652.40
2023-09-27T17:07:39.821Z,100652.85
2023-09-27T17:10:10.628Z,100655.98
2023-09-27T17:12:40.065Z,100661.40
2023-09-27T17:15:08.867Z,100662.91
2023-09-27T17:17:37.466Z,100665.08
2023-09-27T17:20:06.217Z,100669.48
2023-09-27T17:22:34.025Z,100674.08
2023-09-27T17:25:01.591Z,100673.28
2023-09-27T17:27:29.246Z,100675.30
2023-09-27T17:29:59.254Z,100674.18
2023-09-27T17:32:26.851Z,100675.55
2023-09-27T17:34:54.899Z,100675.60
2023-09-27T17:37:22.725Z,100673.04
2023-09-27T17:39:51.706Z,100677.09
2023-09-27T17:42:19.263Z,100675.40
2023-09-27T17:44:49.420Z,100675.32
2023-09-27T17:47:17.750Z,100675.11
2023-09-27T17:49:45.385Z,100673.71
2023-09-27T17:52:13.048Z,100677.92
2023-09-27T17:54:40.797Z,100675.22
2023-09-27T17:57:08.536Z,100677.36
2023-09-27T17:59:36.359Z,100679.84
2023-09-27T18:02:04.180Z,100684.84
2023-09-27T18:04:32.479Z,100682.89
2023-09-27T18:06:59.692Z,100682.94
2023-09-27T18:09:26.889Z,100686.73
2023-09-27T18:11:54.109Z,100687.42
2023-09-27T18:14:22.478Z,100687.70
2023-09-27T18:16:49.761Z,100686.98
2023-09-27T18:19:17.316Z,100688.05
2023-09-27T18:21:46.055Z,100690.58
2023-09-27T18:24:13.374Z,100691.75
2023-09-27T18:26:40.625Z,100692.09
2023-09-27T18:29:07.965Z,100695.65
2023-09-27T18:31:35.273Z,100693.55
2023-09-27T18:34:05.426Z,100691.66
2023-09-27T18:36:34.327Z,100690.24
2023-09-27T18:39:03.326Z,100691.24
2023-09-27T18:41:31.416Z,100688.31
2023-09-27T18:43:59.138Z,100693.55
2023-09-27T18:46:26.589Z,100696.34
2023-09-27T18:48:54.060Z,100693.72
2023-09-27T18:51:21.681Z,100696.96
2023-09-27T18:53:49.857Z,100695.77
2023-09-27T18:56:20.145Z,100695.13
2023-09-27T18:58:47.525Z,100696.42
2023-09-27T19:01:15.412Z,100694.37
2023-09-27T19:03:42.470Z,100695.27
2023-09-27T19:06:14.743Z,100694.23
2023-09-27T19:08:42.926Z,100694.46
2023-09-27T19:11:18.240Z,100692.77
2023-09-27T19:13:45.461Z,100696.38
2023-09-27T19:16:12.605Z,100697.82
2023-09-27T19:18:39.863Z,100701.29
2023-09-27T19:21:09.090Z,100696.98
2023-09-27T19:23:39.574Z,100696.98
2023-09-27T19:26:07.461Z,100694.59
2023-09-27T19:28:35.936Z,100695.34
2023-09-27T19:31:07.823Z,100693.80
2023-09-27T19:33:41.759Z,100691.36
2023-09-27T19:36:18.431Z,100693.31
2023-09-27T19:38:47.982Z,100690.00
2023-09-27T19:41:21.512Z,100690.80
2023-09-27T19:43:48.702Z,100690.69
2023-09-27T19:46:21.565Z,100691.04
2023-09-27T19:48:48.787Z,100689.83
2023-09-27T19:51:25.263Z,100686.84
2023-09-27T19:53:54.837Z,100690.45
2023-09-27T19:56:22.291Z,100686.12
2023-09-27T19:58:49.890Z,100687.95
2023-09-27T20:01:29.360Z,100687.00
2023-09-27T20:03:56.887Z,100687.89
2023-09-27T20:06:25.969Z,100683.11
2023-09-27T20:08:52.913Z,100681.80
2023-09-27T20:11:20.766Z,100680.79
2023-09-27T20:13:47.929Z,100679.89
2023-09-27T20:16:15.203Z,100681.30
2023-09-27T20:18:42.225Z,100680.30
2023-09-27T20:21:09.485Z,100678.63
2023-09-27T20:23:38.507Z,100675.30
2023-09-27T20:26:05.831Z,100673.09
2023-09-27T20:28:33.019Z,100672.15
2023-09-27T20:31:00.031Z,100674.79
2023-09-27T20:33:27.193Z,100671.42
2023-09-27T20:35:54.174Z,100669.52
2023-09-27T20:38:21.230Z,100675.60
2023-09-27T20:40:48.229Z,100676.59
2023-09-27T20:43:15.484Z,100678.55
2023-09-27T20:45:42.657Z,100682.19
2023-09-27T20:48:09.716Z,100682.27
2023-09-27T20:50:36.847Z,100682.68
2023-09-27T20:53:04.012Z,100682.93
2023-09-27T20:55:31.210Z,100681.77
2023-09-27T20:58:04.111Z,100680.83
2023-09-27T21:00:31.855Z,100678.10
2023-09-27T21:02:58.926Z,100679.07
2023-09-27T21:05:25.958Z,100677.16
2023-09-27T21:07:53.496Z,100679.52
2023-09-27T21:10:20.603Z,100676.29
2023-09-27T21:12:47.578Z,100672.08
2023-09-27T21:15:14.658Z,100669.80
2023-09-27T21:17:41.923Z,100667.98
2023-09-27T21:20:10.070Z,100665.80
2023-09-27T21:22:37.207Z,100666.34
2023-09-27T21:25:04.888Z,100667.06
2023-09-27T21:27:32.922Z,100667.73
2023-09-27T21:30:04.238Z,100665.69
2023-09-27T21:32:31.347Z,100666.23
2023-09-27T21:34:58.545Z,100666.73
2023-09-27T21:37:26.628Z,100665.17
2023-09-27T21:39:54.157Z,100664.45
2023-09-27T21:42:21.110Z,100662.15
2023-09-27T21:44:48.078Z,100662.56
2023-09-27T21:47:15.204Z,100661.94
2023-09-27T21:49:42.272Z,100659.66
2023-09-27T21:52:09.298Z,100658.64
2023-09-27T21:54:36.333Z,100660.44
2023-09-27T21:57:03.482Z,100657.52
2023-09-27T21:59:31.661Z,100658.25
2023-09-27T22:01:58.714Z,100659.55
2023-09-27T22:04:25.812Z,100657.80
2023-09-27T22:06:52.777Z,100656.90
2023-09-27T22:09:20.083Z,100655.38
2023-09-27T22:11:51.782Z,100658.66
2023-09-27T22:14:20.472Z,100652.18
2023-09-27T22:16:48.491Z,100651.50
2023-09-27T22:19:15.479Z,100652.16
2023-09-27T22:21:46.681Z,100652.72
2023-09-27T22:24:18.240Z,100649.58
2023-09-27T22:26:47.441Z,100648.63
2023-09-27T22:29:14.516Z,100645.60
2023-09-27T22:31:42.796Z,100646.17
2023-09-27T22:34:23.105Z,100641.81
2023-09-27T22:36:51.350Z,100641.30
2023-09-27T22:39:19.632Z,100639.78
2023-09-27T22:41:48.754Z,100639.27
2023-09-27T22:44:22.691Z,100640.14
2023-09-27T22:46:53.206Z,100638.34
2023-09-27T22:49:22.664Z,100636.98
2023-09-27T22:51:50.620Z,100634.23
2023-09-27T22:54:21.081Z,100636.88
2023-09-27T22:56:52.504Z,100635.94
2023-09-27T22:59:19.522Z,100633.04
2023-09-27T23:01:51.072Z,100633.98
2023-09-27T23:04:23.056Z,100635.17
2023-09-27T23:07:02.058Z,100633.79
2023-09-27T23:09:34.745Z,100634.33
2023-09-27T23:12:20.745Z,100637.31
2023-09-27T23:15:07.004Z,100633.54
2023-09-27T23:17:55.590Z,100635.11
2023-09-27T23:20:29.224Z,100637.41
2023-09-27T23:22:57.510Z,100636.22
2023-09-27T23:25:43.450Z,100635.15
2023-09-27T23:28:17.079Z,100637.70
2023-09-27T23:30:53.039Z,100633.42
2023-09-27T23:33:20.113Z,100631.60
2023-09-27T23:35:50.402Z,100629.73
2023-09-27T23:38:37.233Z,100624.46
2023-09-27T23:41:04.478Z,100624.88
2023-09-27T23:43:40.462Z,100626.00
2023-09-27T23:46:14.096Z,100624.09
2023-09-27T23:48:42.865Z,100620.48
2023-09-27T23:51:10.037Z,100621.77
2023-09-27T23:53:37.162Z,100618.98
2023-09-27T23:56:07.078Z,100617.77
2023-09-27T23:58:35.435Z,100620.64
